sensor_id;sensor_type;location;lat;lon;timestamp;temperature;humidity
65854;DHT22;52627;48.838;2.402;2023-10-13T00:01:59;20.74;75.70
65854;DHT22;52627;48.838;2.402;2023-10-13T00:04:30;20.74;75.72
65854;DHT22;52627;48.838;2.402;2023-10-13T00:07:03;20.73;75.72
65854;DHT22;52627;48.838;2.402;2023-10-13T00:09:31;20.73;75.73
65854;DHT22;52627;48.838;2.402;2023-10-13T00:11:59;20.74;75.71
65854;DHT22;52627;48.838;2.402;2023-10-13T00:14:27;20.73;75.70
65854;DHT22;52627;48.838;2.402;2023-10-13T00:17:01;20.73;75.74
65854;DHT22;52627;48.838;2.402;2023-10-13T00:19:32;20.73;75.78
65854;DHT22;52627;48.838;2.402;2023-10-13T00:22:14;20.71;75.79
65854;DHT22;52627;48.838;2.402;2023-10-13T00:24:47;20.71;75.80
65854;DHT22;52627;48.838;2.402;2023-10-13T00:27:16;20.71;75.80
65854;DHT22;52627;48.838;2.402;2023-10-13T00:29:58;20.72;75.80
65854;DHT22;52627;48.838;2.402;2023-10-13T00:32:43;20.73;75.80
65854;DHT22;52627;48.838;2.402;2023-10-13T00:35:14;20.72;75.80
65854;DHT22;52627;48.838;2.402;2023-10-13T00:37:43;20.71;75.80
65854;DHT22;52627;48.838;2.402;2023-10-13T00:40:13;20.70;75.80
65854;DHT22;52627;48.838;2.402;2023-10-13T00:43:01;20.71;75.82
65854;DHT22;52627;48.838;2.402;2023-10-13T00:48:24;20.70;75.82
65854;DHT22;52627;48.838;2.402;2023-10-13T00:51:02;20.70;75.82
65854;DHT22;52627;48.838;2.402;2023-10-13T00:53:34;20.70;75.85
65854;DHT22;52627;48.838;2.402;2023-10-13T00:56:14;20.69;75.86
65854;DHT22;52627;48.838;2.402;2023-10-13T00:58:54;20.69;75.89
65854;DHT22;52627;48.838;2.402;2023-10-13T01:01:26;20.68;75.89
65854;DHT22;52627;48.838;2.402;2023-10-13T01:04:00;20.68;75.90
65854;DHT22;52627;48.838;2.402;2023-10-13T01:06:32;20.67;75.90
65854;DHT22;52627;48.838;2.402;2023-10-13T01:09:02;20.67;75.90
65854;DHT22;52627;48.838;2.402;2023-10-13T01:14:14;20.66;75.91
65854;DHT22;52627;48.838;2.402;2023-10-13T01:16:46;20.65;75.95
65854;DHT22;52627;48.838;2.402;2023-10-13T01:19:19;20.63;75.99
65854;DHT22;52627;48.838;2.402;2023-10-13T01:21:52;20.62;76.00
65854;DHT22;52627;48.838;2.402;2023-10-13T01:24:31;20.61;76.00
65854;DHT22;52627;48.838;2.402;2023-10-13T01:27:02;20.61;76.00
65854;DHT22;52627;48.838;2.402;2023-10-13T01:29:51;20.60;76.05
65854;DHT22;52627;48.838;2.402;2023-10-13T01:32:25;20.58;76.06
65854;DHT22;52627;48.838;2.402;2023-10-13T01:34:53;20.58;76.09
65854;DHT22;52627;48.838;2.402;2023-10-13T01:37:25;20.57;76.10
65854;DHT22;52627;48.838;2.402;2023-10-13T01:39:52;20.57;76.11
65854;DHT22;52627;48.838;2.402;2023-10-13T01:42:20;20.57;76.13
65854;DHT22;52627;48.838;2.402;2023-10-13T01:44:49;20.56;76.20
65854;DHT22;52627;48.838;2.402;2023-10-13T01:47:17;20.56;76.19
65854;DHT22;52627;48.838;2.402;2023-10-13T01:49:45;20.56;76.20
65854;DHT22;52627;48.838;2.402;2023-10-13T01:52:18;20.56;76.20
65854;DHT22;52627;48.838;2.402;2023-10-13T01:54:46;20.55;76.21
65854;DHT22;52627;48.838;2.402;2023-10-13T01:57:17;20.54;76.27
65854;DHT22;52627;48.838;2.402;2023-10-13T01:59:48;20.53;76.30
65854;DHT22;52627;48.838;2.402;2023-10-13T02:02:16;20.51;76.30
65854;DHT22;52627;48.838;2.402;2023-10-13T02:04:56;20.50;76.31
65854;DHT22;52627;48.838;2.402;2023-10-13T02:07:28;20.49;76.34
65854;DHT22;52627;48.838;2.402;2023-10-13T02:10:02;20.47;76.39
65854;DHT22;52627;48.838;2.402;2023-10-13T02:12:33;20.47;76.40
65854;DHT22;52627;48.838;2.402;2023-10-13T02:15:04;20.45;76.40
65854;DHT22;52627;48.838;2.402;2023-10-13T02:17:32;20.44;76.47
65854;DHT22;52627;48.838;2.402;2023-10-13T02:20:11;20.43;76.47
65854;DHT22;52627;48.838;2.402;2023-10-13T02:22:41;20.42;76.50
65854;DHT22;52627;48.838;2.402;2023-10-13T02:25:19;20.42;76.50
65854;DHT22;52627;48.838;2.402;2023-10-13T02:28:03;20.41;76.50
65854;DHT22;52627;48.838;2.402;2023-10-13T02:30:41;20.40;76.53
65854;DHT22;52627;48.838;2.402;2023-10-13T02:33:12;20.38;76.60
65854;DHT22;52627;48.838;2.402;2023-10-13T02:35:41;20.36;76.60
65854;DHT22;52627;48.838;2.402;2023-10-13T02:38:08;20.36;76.60
65854;DHT22;52627;48.838;2.402;2023-10-13T02:40:39;20.37;76.63
65854;DHT22;52627;48.838;2.402;2023-10-13T02:43:07;20.35;76.68
65854;DHT22;52627;48.838;2.402;2023-10-13T02:45:34;20.35;76.70
65854;DHT22;52627;48.838;2.402;2023-10-13T02:48:05;20.35;76.70
65854;DHT22;52627;48.838;2.402;2023-10-13T02:50:41;20.35;76.70
65854;DHT22;52627;48.838;2.402;2023-10-13T02:53:13;20.35;76.70
65854;DHT22;52627;48.838;2.402;2023-10-13T02:55:52;20.34;76.70
65854;DHT22;52627;48.838;2.402;2023-10-13T02:58:33;20.33;76.72
65854;DHT22;52627;48.838;2.402;2023-10-13T03:01:07;20.32;76.77
65854;DHT22;52627;48.838;2.402;2023-10-13T03:03:51;20.32;76.79
65854;DHT22;52627;48.838;2.402;2023-10-13T03:06:22;20.31;76.80
65854;DHT22;52627;48.838;2.402;2023-10-13T03:09:03;20.30;76.80
65854;DHT22;52627;48.838;2.402;2023-10-13T03:11:42;20.26;76.80
65854;DHT22;52627;48.838;2.402;2023-10-13T03:14:21;20.26;76.82
65854;DHT22;52627;48.838;2.402;2023-10-13T03:17:02;20.24;76.87
65854;DHT22;52627;48.838;2.402;2023-10-13T03:19:34;20.23;76.90
65854;DHT22;52627;48.838;2.402;2023-10-13T03:22:05;20.21;76.91
65854;DHT22;52627;48.838;2.402;2023-10-13T03:24:39;20.19;76.92
65854;DHT22;52627;48.838;2.402;2023-10-13T03:27:15;20.18;76.97
65854;DHT22;52627;48.838;2.402;2023-10-13T03:29:45;20.18;76.99
65854;DHT22;52627;48.838;2.402;2023-10-13T03:32:22;20.16;77.00
65854;DHT22;52627;48.838;2.402;2023-10-13T03:34:54;20.15;77.00
65854;DHT22;52627;48.838;2.402;2023-10-13T03:37:38;20.14;77.01
65854;DHT22;52627;48.838;2.402;2023-10-13T03:40:07;20.12;77.00
65854;DHT22;52627;48.838;2.402;2023-10-13T03:42:49;20.11;77.09
65854;DHT22;52627;48.838;2.402;2023-10-13T03:45:33;20.09;77.10
65854;DHT22;52627;48.838;2.402;2023-10-13T03:50:43;20.08;77.10
65854;DHT22;52627;48.838;2.402;2023-10-13T03:53:14;20.07;77.10
65854;DHT22;52627;48.838;2.402;2023-10-13T03:55:43;20.06;77.10
65854;DHT22;52627;48.838;2.402;2023-10-13T03:58:15;20.06;77.10
65854;DHT22;52627;48.838;2.402;2023-10-13T04:00:44;20.05;77.10
65854;DHT22;52627;48.838;2.402;2023-10-13T04:03:12;20.05;77.10
65854;DHT22;52627;48.838;2.402;2023-10-13T04:05:44;20.06;77.10
65854;DHT22;52627;48.838;2.402;2023-10-13T04:08:14;20.05;77.10
65854;DHT22;52627;48.838;2.402;2023-10-13T04:10:58;20.06;77.09
65854;DHT22;52627;48.838;2.402;2023-10-13T04:13:25;20.06;77.05
65854;DHT22;52627;48.838;2.402;2023-10-13T04:16:12;20.04;77.00
65854;DHT22;52627;48.838;2.402;2023-10-13T04:18:49;20.04;77.00
65854;DHT22;52627;48.838;2.402;2023-10-13T04:21:23;20.02;76.95
65854;DHT22;52627;48.838;2.402;2023-10-13T04:24:06;20.01;76.89
65854;DHT22;52627;48.838;2.402;2023-10-13T04:26:44;20.01;76.80
65854;DHT22;52627;48.838;2.402;2023-10-13T04:29:31;20.00;76.73
65854;DHT22;52627;48.838;2.402;2023-10-13T04:32:17;19.98;76.68
65854;DHT22;52627;48.838;2.402;2023-10-13T04:35:06;19.98;76.62
65854;DHT22;52627;48.838;2.402;2023-10-13T04:37:40;19.97;76.53
65854;DHT22;52627;48.838;2.402;2023-10-13T04:40:26;19.95;76.41
65854;DHT22;52627;48.838;2.402;2023-10-13T04:42:55;19.93;76.30
65854;DHT22;52627;48.838;2.402;2023-10-13T04:45:31;19.93;76.15
65854;DHT22;52627;48.838;2.402;2023-10-13T04:47:59;19.90;76.01
65854;DHT22;52627;48.838;2.402;2023-10-13T04:50:47;19.88;75.86
65854;DHT22;52627;48.838;2.402;2023-10-13T04:53:24;19.88;75.73
65854;DHT22;52627;48.838;2.402;2023-10-13T04:55:57;19.86;75.54
65854;DHT22;52627;48.838;2.402;2023-10-13T04:58:29;19.85;75.44
65854;DHT22;52627;48.838;2.402;2023-10-13T05:01:01;19.85;75.26
65854;DHT22;52627;48.838;2.402;2023-10-13T05:03:48;19.84;75.08
65854;DHT22;52627;48.838;2.402;2023-10-13T05:06:36;19.83;74.93
65854;DHT22;52627;48.838;2.402;2023-10-13T05:09:09;19.82;74.81
65854;DHT22;52627;48.838;2.402;2023-10-13T05:11:56;19.83;74.59
65854;DHT22;52627;48.838;2.402;2023-10-13T05:14:43;19.82;74.42
65854;DHT22;52627;48.838;2.402;2023-10-13T05:17:29;19.82;74.24
65854;DHT22;52627;48.838;2.402;2023-10-13T05:20:16;19.81;74.12
65854;DHT22;52627;48.838;2.402;2023-10-13T05:23:02;19.82;74.07
65854;DHT22;52627;48.838;2.402;2023-10-13T05:25:48;19.84;73.93
65854;DHT22;52627;48.838;2.402;2023-10-13T05:28:34;19.82;73.73
65854;DHT22;52627;48.838;2.402;2023-10-13T05:31:20;19.83;73.60
65854;DHT22;52627;48.838;2.402;2023-10-13T05:34:07;19.82;73.47
65854;DHT22;52627;48.838;2.402;2023-10-13T05:36:53;19.82;73.33
65854;DHT22;52627;48.838;2.402;2023-10-13T05:39:39;19.82;73.19
65854;DHT22;52627;48.838;2.402;2023-10-13T05:42:25;19.82;73.08
65854;DHT22;52627;48.838;2.402;2023-10-13T05:45:11;19.81;72.91
65854;DHT22;52627;48.838;2.402;2023-10-13T05:47:44;19.80;72.80
65854;DHT22;52627;48.838;2.402;2023-10-13T05:50:12;19.80;72.81
65854;DHT22;52627;48.838;2.402;2023-10-13T05:53:01;19.81;72.91
65854;DHT22;52627;48.838;2.402;2023-10-13T05:55:37;19.80;73.00
65854;DHT22;52627;48.838;2.402;2023-10-13T05:58:23;19.79;72.95
65854;DHT22;52627;48.838;2.402;2023-10-13T06:01:11;19.78;73.01
65854;DHT22;52627;48.838;2.402;2023-10-13T06:03:58;19.77;73.00
65854;DHT22;52627;48.838;2.402;2023-10-13T06:06:45;19.77;73.07
65854;DHT22;52627;48.838;2.402;2023-10-13T06:09:31;19.76;73.38
65854;DHT22;52627;48.838;2.402;2023-10-13T06:12:21;19.77;73.56
65854;DHT22;52627;48.838;2.402;2023-10-13T06:15:07;19.77;73.72
65854;DHT22;52627;48.838;2.402;2023-10-13T06:17:53;19.75;73.68
65854;DHT22;52627;48.838;2.402;2023-10-13T06:20:41;19.74;73.76
65854;DHT22;52627;48.838;2.402;2023-10-13T06:23:27;19.72;73.83
65854;DHT22;52627;48.838;2.402;2023-10-13T06:26:14;19.70;73.83
65854;DHT22;52627;48.838;2.402;2023-10-13T06:29:18;19.68;73.79
65854;DHT22;52627;48.838;2.402;2023-10-13T06:31:47;19.66;73.84
65854;DHT22;52627;48.838;2.402;2023-10-13T06:34:16;19.65;73.79
65854;DHT22;52627;48.838;2.402;2023-10-13T06:36:47;19.65;73.83
65854;DHT22;52627;48.838;2.402;2023-10-13T06:39:15;19.65;73.88
65854;DHT22;52627;48.838;2.402;2023-10-13T06:42:02;19.65;73.90
65854;DHT22;52627;48.838;2.402;2023-10-13T06:44:32;19.66;73.81
65854;DHT22;52627;48.838;2.402;2023-10-13T06:47:01;19.65;73.78
65854;DHT22;52627;48.838;2.402;2023-10-13T06:49:31;19.66;73.75
65854;DHT22;52627;48.838;2.402;2023-10-13T06:52:06;19.65;73.64
65854;DHT22;52627;48.838;2.402;2023-10-13T06:54:34;19.66;73.60
65854;DHT22;52627;48.838;2.402;2023-10-13T06:57:02;19.68;73.56
65854;DHT22;52627;48.838;2.402;2023-10-13T06:59:34;19.70;73.56
65854;DHT22;52627;48.838;2.402;2023-10-13T07:02:06;19.72;73.49
65854;DHT22;52627;48.838;2.402;2023-10-13T07:04:54;19.73;73.28
65854;DHT22;52627;48.838;2.402;2023-10-13T07:07:35;19.74;73.19
65854;DHT22;52627;48.838;2.402;2023-10-13T07:10:07;19.77;73.09
65854;DHT22;52627;48.838;2.402;2023-10-13T07:12:41;19.78;72.78
65854;DHT22;52627;48.838;2.402;2023-10-13T07:15:10;19.79;72.61
65854;DHT22;52627;48.838;2.402;2023-10-13T07:17:46;19.81;72.40
65854;DHT22;52627;48.838;2.402;2023-10-13T07:20:15;19.80;72.17
65854;DHT22;52627;48.838;2.402;2023-10-13T07:22:43;19.81;71.99
65854;DHT22;52627;48.838;2.402;2023-10-13T07:25:30;19.83;71.75
65854;DHT22;52627;48.838;2.402;2023-10-13T07:28:00;19.85;71.62
65854;DHT22;52627;48.838;2.402;2023-10-13T07:30:27;19.88;71.51
65854;DHT22;52627;48.838;2.402;2023-10-13T07:32:57;19.90;71.38
65854;DHT22;52627;48.838;2.402;2023-10-13T07:35:27;19.94;71.25
65854;DHT22;52627;48.838;2.402;2023-10-13T07:37:58;19.99;71.20
65854;DHT22;52627;48.838;2.402;2023-10-13T07:40:27;20.02;71.00
65854;DHT22;52627;48.838;2.402;2023-10-13T07:42:55;20.07;70.91
65854;DHT22;52627;48.838;2.402;2023-10-13T07:45:44;20.10;70.77
65854;DHT22;52627;48.838;2.402;2023-10-13T07:48:12;20.13;70.62
65854;DHT22;52627;48.838;2.402;2023-10-13T07:50:44;20.15;70.43
65854;DHT22;52627;48.838;2.402;2023-10-13T07:53:12;20.17;70.21
65854;DHT22;52627;48.838;2.402;2023-10-13T07:55:50;20.19;69.98
65854;DHT22;52627;48.838;2.402;2023-10-13T07:58:30;20.21;69.82
65854;DHT22;52627;48.838;2.402;2023-10-13T08:01:01;20.23;69.55
65854;DHT22;52627;48.838;2.402;2023-10-13T08:03:35;20.24;69.35
65854;DHT22;52627;48.838;2.402;2023-10-13T08:06:14;20.27;69.11
65854;DHT22;52627;48.838;2.402;2023-10-13T08:08:48;20.30;68.97
65854;DHT22;52627;48.838;2.402;2023-10-13T08:11:21;20.34;68.76
65854;DHT22;52627;48.838;2.402;2023-10-13T08:16:36;20.41;68.38
65854;DHT22;52627;48.838;2.402;2023-10-13T08:19:22;20.45;68.20
65854;DHT22;52627;48.838;2.402;2023-10-13T08:21:55;20.51;68.08
65854;DHT22;52627;48.838;2.402;2023-10-13T08:24:27;20.55;67.91
65854;DHT22;52627;48.838;2.402;2023-10-13T08:27:07;20.60;67.77
65854;DHT22;52627;48.838;2.402;2023-10-13T08:29:44;20.65;67.66
65854;DHT22;52627;48.838;2.402;2023-10-13T08:32:29;20.70;67.49
65854;DHT22;52627;48.838;2.402;2023-10-13T08:34:58;20.72;67.23
65854;DHT22;52627;48.838;2.402;2023-10-13T08:37:30;20.75;67.09
65854;DHT22;52627;48.838;2.402;2023-10-13T08:40:24;20.80;66.93
65854;DHT22;52627;48.838;2.402;2023-10-13T08:43:11;20.85;66.80
65854;DHT22;52627;48.838;2.402;2023-10-13T08:45:40;20.87;66.66
65854;DHT22;52627;48.838;2.402;2023-10-13T08:48:10;20.92;66.49
65854;DHT22;52627;48.838;2.402;2023-10-13T08:50:39;20.95;66.31
65854;DHT22;52627;48.838;2.402;2023-10-13T08:53:20;20.99;66.14
65854;DHT22;52627;48.838;2.402;2023-10-13T08:58:33;21.08;65.65
65854;DHT22;52627;48.838;2.402;2023-10-13T09:01:29;21.13;65.48
65854;DHT22;52627;48.838;2.402;2023-10-13T09:04:16;21.18;65.39
65854;DHT22;52627;48.838;2.402;2023-10-13T09:09:25;21.25;64.98
65854;DHT22;52627;48.838;2.402;2023-10-13T09:12:12;21.29;64.89
65854;DHT22;52627;48.838;2.402;2023-10-13T09:15:05;21.36;64.76
65854;DHT22;52627;48.838;2.402;2023-10-13T09:17:41;21.41;64.66
65854;DHT22;52627;48.838;2.402;2023-10-13T09:20:14;21.47;64.45
65854;DHT22;52627;48.838;2.402;2023-10-13T09:22:51;21.53;64.31
65854;DHT22;52627;48.838;2.402;2023-10-13T09:28:13;21.63;63.96
65854;DHT22;52627;48.838;2.402;2023-10-13T09:30:45;21.69;63.76
65854;DHT22;52627;48.838;2.402;2023-10-13T09:33:20;21.75;63.53
65854;DHT22;52627;48.838;2.402;2023-10-13T09:36:00;21.83;63.44
65854;DHT22;52627;48.838;2.402;2023-10-13T09:38:28;21.89;63.28
65854;DHT22;52627;48.838;2.402;2023-10-13T09:40:56;21.94;63.17
65854;DHT22;52627;48.838;2.402;2023-10-13T09:43:45;22.00;63.04
65854;DHT22;52627;48.838;2.402;2023-10-13T09:46:15;22.04;62.86
65854;DHT22;52627;48.838;2.402;2023-10-13T09:48:51;22.06;62.68
65854;DHT22;52627;48.838;2.402;2023-10-13T09:51:36;22.09;62.48
65854;DHT22;52627;48.838;2.402;2023-10-13T09:54:06;22.11;62.23
65854;DHT22;52627;48.838;2.402;2023-10-13T09:57:05;22.15;62.02
65854;DHT22;52627;48.838;2.402;2023-10-13T09:59:47;22.18;61.82
65854;DHT22;52627;48.838;2.402;2023-10-13T10:02:19;22.25;61.50
65854;DHT22;52627;48.838;2.402;2023-10-13T10:04:53;22.31;61.23
65854;DHT22;52627;48.838;2.402;2023-10-13T10:07:38;22.39;60.95
65854;DHT22;52627;48.838;2.402;2023-10-13T10:10:11;22.47;60.70
65854;DHT22;52627;48.838;2.402;2023-10-13T10:18:21;22.65;59.81
65854;DHT22;52627;48.838;2.402;2023-10-13T10:21:02;22.70;59.64
65854;DHT22;52627;48.838;2.402;2023-10-13T10:23:34;22.73;59.48
65854;DHT22;52627;48.838;2.402;2023-10-13T10:26:15;22.76;59.33
65854;DHT22;52627;48.838;2.402;2023-10-13T10:28:50;22.80;59.12
65854;DHT22;52627;48.838;2.402;2023-10-13T10:31:18;22.83;59.02
65854;DHT22;52627;48.838;2.402;2023-10-13T10:33:47;22.85;58.88
65854;DHT22;52627;48.838;2.402;2023-10-13T10:36:30;22.90;58.76
65854;DHT22;52627;48.838;2.402;2023-10-13T10:38:58;22.93;58.64
65854;DHT22;52627;48.838;2.402;2023-10-13T10:41:32;22.98;58.55
65854;DHT22;52627;48.838;2.402;2023-10-13T10:44:20;23.02;58.48
65854;DHT22;52627;48.838;2.402;2023-10-13T10:47:14;23.05;58.30
65854;DHT22;52627;48.838;2.402;2023-10-13T10:50:09;23.10;57.96
65854;DHT22;52627;48.838;2.402;2023-10-13T10:52:59;23.14;57.83
65854;DHT22;52627;48.838;2.402;2023-10-13T10:55:36;23.18;57.68
65854;DHT22;52627;48.838;2.402;2023-10-13T10:58:04;23.22;57.56
65854;DHT22;52627;48.838;2.402;2023-10-13T11:01:04;23.28;57.43
65854;DHT22;52627;48.838;2.402;2023-10-13T11:03:37;23.34;57.26
65854;DHT22;52627;48.838;2.402;2023-10-13T11:06:12;23.42;57.13
65854;DHT22;52627;48.838;2.402;2023-10-13T11:08:45;23.50;57.01
65854;DHT22;52627;48.838;2.402;2023-10-13T11:11:28;23.54;56.80
65854;DHT22;52627;48.838;2.402;2023-10-13T11:14:01;23.59;56.51
65854;DHT22;52627;48.838;2.402;2023-10-13T11:16:45;23.66;56.19
65854;DHT22;52627;48.838;2.402;2023-10-13T11:19:18;23.72;55.96
65854;DHT22;52627;48.838;2.402;2023-10-13T11:21:53;23.78;55.73
65854;DHT22;52627;48.838;2.402;2023-10-13T11:24:21;23.85;55.49
65854;DHT22;52627;48.838;2.402;2023-10-13T11:26:49;23.91;55.30
65854;DHT22;52627;48.838;2.402;2023-10-13T11:29:17;24.00;55.03
65854;DHT22;52627;48.838;2.402;2023-10-13T11:31:47;24.10;54.88
65854;DHT22;52627;48.838;2.402;2023-10-13T11:34:25;24.19;54.68
65854;DHT22;52627;48.838;2.402;2023-10-13T11:36:57;24.28;54.45
65854;DHT22;52627;48.838;2.402;2023-10-13T11:39:45;24.35;54.26
65854;DHT22;52627;48.838;2.402;2023-10-13T11:42:13;24.43;54.08
65854;DHT22;52627;48.838;2.402;2023-10-13T11:44:44;24.52;53.86
65854;DHT22;52627;48.838;2.402;2023-10-13T11:47:11;24.59;53.74
65854;DHT22;52627;48.838;2.402;2023-10-13T11:49:58;24.67;53.65
65854;DHT22;52627;48.838;2.402;2023-10-13T11:52:26;24.70;53.45
65854;DHT22;52627;48.838;2.402;2023-10-13T11:54:56;24.76;53.39
65854;DHT22;52627;48.838;2.402;2023-10-13T11:57:23;24.78;53.36
65854;DHT22;52627;48.838;2.402;2023-10-13T11:59:51;24.79;53.23
65854;DHT22;52627;48.838;2.402;2023-10-13T12:02:23;24.78;53.12
65854;DHT22;52627;48.838;2.402;2023-10-13T12:04:54;24.78;53.10
65854;DHT22;52627;48.838;2.402;2023-10-13T12:07:25;24.78;53.02
65854;DHT22;52627;48.838;2.402;2023-10-13T12:10:19;24.77;52.93
65854;DHT22;52627;48.838;2.402;2023-10-13T12:13:09;24.78;52.85
65854;DHT22;52627;48.838;2.402;2023-10-13T12:15:38;24.80;52.82
65854;DHT22;52627;48.838;2.402;2023-10-13T12:18:16;24.82;52.85
65854;DHT22;52627;48.838;2.402;2023-10-13T12:20:43;24.85;52.81
65854;DHT22;52627;48.838;2.402;2023-10-13T12:23:13;24.92;52.71
65854;DHT22;52627;48.838;2.402;2023-10-13T12:25:44;24.96;52.62
65854;DHT22;52627;48.838;2.402;2023-10-13T12:28:22;24.98;52.52
65854;DHT22;52627;48.838;2.402;2023-10-13T12:30:54;25.02;52.47
65854;DHT22;52627;48.838;2.402;2023-10-13T12:33:25;25.05;52.36
65854;DHT22;52627;48.838;2.402;2023-10-13T12:36:04;25.08;52.26
65854;DHT22;52627;48.838;2.402;2023-10-13T12:38:38;25.14;52.20
65854;DHT22;52627;48.838;2.402;2023-10-13T12:41:19;25.20;52.18
65854;DHT22;52627;48.838;2.402;2023-10-13T12:44:06;25.25;52.12
65854;DHT22;52627;48.838;2.402;2023-10-13T12:46:53;25.31;52.04
65854;DHT22;52627;48.838;2.402;2023-10-13T12:49:40;25.36;51.89
65854;DHT22;52627;48.838;2.402;2023-10-13T12:52:08;25.42;51.73
65854;DHT22;52627;48.838;2.402;2023-10-13T12:55:03;25.48;51.62
65854;DHT22;52627;48.838;2.402;2023-10-13T12:57:31;25.53;51.42
65854;DHT22;52627;48.838;2.402;2023-10-13T12:59:59;25.60;51.42
65854;DHT22;52627;48.838;2.402;2023-10-13T13:02:28;25.72;51.39
65854;DHT22;52627;48.838;2.402;2023-10-13T13:04:57;25.79;51.19
65854;DHT22;52627;48.838;2.402;2023-10-13T13:07:33;25.82;50.99
65854;DHT22;52627;48.838;2.402;2023-10-13T13:10:10;25.89;50.71
65854;DHT22;52627;48.838;2.402;2023-10-13T13:12:40;25.92;50.42
65854;DHT22;52627;48.838;2.402;2023-10-13T13:15:09;25.97;50.28
65854;DHT22;52627;48.838;2.402;2023-10-13T13:17:39;26.01;50.15
65854;DHT22;52627;48.838;2.402;2023-10-13T13:20:07;25.98;50.10
65854;DHT22;52627;48.838;2.402;2023-10-13T13:22:53;25.94;49.99
65854;DHT22;52627;48.838;2.402;2023-10-13T13:25:22;25.88;49.90
65854;DHT22;52627;48.838;2.402;2023-10-13T13:27:57;25.84;50.22
65854;DHT22;52627;48.838;2.402;2023-10-13T13:30:32;25.80;50.29
65854;DHT22;52627;48.838;2.402;2023-10-13T13:33:03;25.75;50.44
65854;DHT22;52627;48.838;2.402;2023-10-13T13:35:38;25.70;50.53
65854;DHT22;52627;48.838;2.402;2023-10-13T13:38:09;25.66;50.63
65854;DHT22;52627;48.838;2.402;2023-10-13T13:40:40;25.61;50.47
65854;DHT22;52627;48.838;2.402;2023-10-13T13:43:07;25.57;50.40
65854;DHT22;52627;48.838;2.402;2023-10-13T13:45:44;25.51;50.33
65854;DHT22;52627;48.838;2.402;2023-10-13T13:48:12;25.46;50.33
65854;DHT22;52627;48.838;2.402;2023-10-13T13:50:43;25.42;50.33
65854;DHT22;52627;48.838;2.402;2023-10-13T13:53:12;25.39;50.35
65854;DHT22;52627;48.838;2.402;2023-10-13T13:55:40;25.33;50.30
65854;DHT22;52627;48.838;2.402;2023-10-13T13:58:08;25.31;50.30
65854;DHT22;52627;48.838;2.402;2023-10-13T14:00:37;25.27;50.34
65854;DHT22;52627;48.838;2.402;2023-10-13T14:03:08;25.24;50.32
65854;DHT22;52627;48.838;2.402;2023-10-13T14:05:40;25.19;50.33
65854;DHT22;52627;48.838;2.402;2023-10-13T14:08:09;25.16;50.39
65854;DHT22;52627;48.838;2.402;2023-10-13T14:10:39;25.15;50.41
65854;DHT22;52627;48.838;2.402;2023-10-13T14:13:25;25.13;50.42
65854;DHT22;52627;48.838;2.402;2023-10-13T14:16:13;25.12;50.47
65854;DHT22;52627;48.838;2.402;2023-10-13T14:18:44;25.10;50.41
65854;DHT22;52627;48.838;2.402;2023-10-13T14:21:13;25.09;50.41
65854;DHT22;52627;48.838;2.402;2023-10-13T14:23:44;25.07;50.45
65854;DHT22;52627;48.838;2.402;2023-10-13T14:26:13;25.05;50.47
65854;DHT22;52627;48.838;2.402;2023-10-13T14:28:43;25.04;50.57
65854;DHT22;52627;48.838;2.402;2023-10-13T14:31:19;25.01;50.60
65854;DHT22;52627;48.838;2.402;2023-10-13T14:33:47;24.98;50.65
65854;DHT22;52627;48.838;2.402;2023-10-13T14:36:15;24.95;50.61
65854;DHT22;52627;48.838;2.402;2023-10-13T14:38:47;24.93;50.68
65854;DHT22;52627;48.838;2.402;2023-10-13T14:41:17;24.89;50.69
65854;DHT22;52627;48.838;2.402;2023-10-13T14:43:45;24.87;50.72
65854;DHT22;52627;48.838;2.402;2023-10-13T14:46:17;24.85;50.81
65854;DHT22;52627;48.838;2.402;2023-10-13T14:48:52;24.83;50.80
65854;DHT22;52627;48.838;2.402;2023-10-13T14:51:21;24.82;50.86
65854;DHT22;52627;48.838;2.402;2023-10-13T14:53:48;24.80;50.90
65854;DHT22;52627;48.838;2.402;2023-10-13T14:56:20;24.78;50.98
65854;DHT22;52627;48.838;2.402;2023-10-13T14:58:52;24.77;51.05
65854;DHT22;52627;48.838;2.402;2023-10-13T15:01:22;24.75;51.14
65854;DHT22;52627;48.838;2.402;2023-10-13T15:03:54;24.74;51.16
65854;DHT22;52627;48.838;2.402;2023-10-13T15:06:26;24.73;51.22
65854;DHT22;52627;48.838;2.402;2023-10-13T15:08:58;24.72;51.30
65854;DHT22;52627;48.838;2.402;2023-10-13T15:11:27;24.72;51.35
65854;DHT22;52627;48.838;2.402;2023-10-13T15:14:15;24.73;51.42
65854;DHT22;52627;48.838;2.402;2023-10-13T15:16:42;24.74;51.48
65854;DHT22;52627;48.838;2.402;2023-10-13T15:19:11;24.75;51.46
65854;DHT22;52627;48.838;2.402;2023-10-13T15:21:39;24.75;51.50
65854;DHT22;52627;48.838;2.402;2023-10-13T15:24:08;24.75;51.54
65854;DHT22;52627;48.838;2.402;2023-10-13T15:26:53;24.75;51.60
65854;DHT22;52627;48.838;2.402;2023-10-13T15:29:35;24.74;51.66
65854;DHT22;52627;48.838;2.402;2023-10-13T15:32:04;24.73;51.69
65854;DHT22;52627;48.838;2.402;2023-10-13T15:34:53;24.74;51.73
65854;DHT22;52627;48.838;2.402;2023-10-13T15:37:21;24.73;51.79
65854;DHT22;52627;48.838;2.402;2023-10-13T15:39:53;24.73;51.87
65854;DHT22;52627;48.838;2.402;2023-10-13T15:42:20;24.74;51.92
65854;DHT22;52627;48.838;2.402;2023-10-13T15:44:48;24.73;52.00
65854;DHT22;52627;48.838;2.402;2023-10-13T15:47:17;24.72;52.09
65854;DHT22;52627;48.838;2.402;2023-10-13T15:49:48;24.72;52.17
65854;DHT22;52627;48.838;2.402;2023-10-13T15:52:15;24.70;52.22
65854;DHT22;52627;48.838;2.402;2023-10-13T15:54:43;24.70;52.29
65854;DHT22;52627;48.838;2.402;2023-10-13T15:57:11;24.68;52.38
65854;DHT22;52627;48.838;2.402;2023-10-13T15:59:43;24.68;52.43
65854;DHT22;52627;48.838;2.402;2023-10-13T16:02:13;24.65;52.48
65854;DHT22;52627;48.838;2.402;2023-10-13T16:04:44;24.64;52.52
65854;DHT22;52627;48.838;2.402;2023-10-13T16:07:12;24.63;52.54
65854;DHT22;52627;48.838;2.402;2023-10-13T16:09:40;24.60;52.59
65854;DHT22;52627;48.838;2.402;2023-10-13T16:12:08;24.59;52.67
65854;DHT22;52627;48.838;2.402;2023-10-13T16:14:38;24.59;52.72
65854;DHT22;52627;48.838;2.402;2023-10-13T16:17:07;24.57;52.82
65854;DHT22;52627;48.838;2.402;2023-10-13T16:19:36;24.56;52.89
65854;DHT22;52627;48.838;2.402;2023-10-13T16:22:04;24.55;52.90
65854;DHT22;52627;48.838;2.402;2023-10-13T16:24:32;24.54;52.94
65854;DHT22;52627;48.838;2.402;2023-10-13T16:27:00;24.52;53.00
65854;DHT22;52627;48.838;2.402;2023-10-13T16:29:28;24.50;53.01
65854;DHT22;52627;48.838;2.402;2023-10-13T16:31:59;24.48;53.01
65854;DHT22;52627;48.838;2.402;2023-10-13T16:34:27;24.46;53.03
65854;DHT22;52627;48.838;2.402;2023-10-13T16:36:54;24.44;53.06
65854;DHT22;52627;48.838;2.402;2023-10-13T16:39:23;24.43;53.09
65854;DHT22;52627;48.838;2.402;2023-10-13T16:41:52;24.41;53.13
65854;DHT22;52627;48.838;2.402;2023-10-13T16:44:22;24.40;53.13